WetterOnline ( https://www.wetteronline.de )

Wetter aktuell Leinfelden-Echterdingen

Aktuelles Wetter: Schnarrenberg/Stuttgart (315m)

6-stündlich | Neueste Meldungen
Ortszeit Temperatur Wetter
Sa, 29.01. 1:00 2.7° C bedeckt
Fr, 28.01. 19:00 3.5° C bedeckt
Fr, 28.01. 13:00 5.2° C bewölkt
Fr, 28.01. 7:00 2.2° C wolkenlos
Fr, 28.01. 1:00 3.1° C bewölkt
Do, 27.01. 19:00 3.1° C leichter Regen
Do, 27.01. 13:00 1.4° C bedeckt
Do, 27.01. 7:00 -1.5° C bedeckt
Ortszeit Temperatur Wetter
Sa, 29.01. 3:00 1.8° C bedeckt
Sa, 29.01. 2:50 1.8° C bedeckt
Sa, 29.01. 2:40 2.1° C bedeckt
Sa, 29.01. 2:30 2.2° C bedeckt
Sa, 29.01. 2:20 2.2° C bedeckt
Sa, 29.01. 2:10 2.2° C bedeckt
Sa, 29.01. 2:00 2.2° C bedeckt
Sa, 29.01. 1:30 2.4° C bedeckt
Sa, 29.01. 1:00 2.7° C bedeckt
Sa, 29.01. 0:30 2.6° C bedeckt
Sa, 29.01. 0:00 2.6° C wolkig
Ortszeit Relative Feuchte Sichtweite
Sa, 29.01. 1:00 74% 45 km
Fr, 28.01. 19:00 73% 35 km
Fr, 28.01. 13:00 65% 55 km
Fr, 28.01. 7:00 85% 30 km
Fr, 28.01. 1:00 85% 30 km
Do, 27.01. 19:00 90% 2.9 km
Do, 27.01. 13:00 79% 28 km
Do, 27.01. 7:00 83% 15 km
Ortszeit Relative Feuchte Sichtweite
Sa, 29.01. 3:00 80% 30 km
Sa, 29.01. 2:50 80% -
Sa, 29.01. 2:40 80% -
Sa, 29.01. 2:30 79% 35 km
Sa, 29.01. 2:20 79% -
Sa, 29.01. 2:10 79% -
Sa, 29.01. 2:00 79% 35 km
Sa, 29.01. 1:30 77% 35 km
Sa, 29.01. 1:00 74% 45 km
Sa, 29.01. 0:30 75% 35 km
Sa, 29.01. 0:00 75% 45 km
Ortszeit Niederschlagsmenge Niederschlagsart
Sa, 29.01. 1:00 0.0 l/m2 in 6 Std. -
Fr, 28.01. 19:00 0.1 l/m2 in 12 Std. -
Fr, 28.01. 13:00 0.1 l/m2 in 6 Std. Regen
Fr, 28.01. 7:00 4 l/m2 in 12 Std. -
Fr, 28.01. 1:00 4 l/m2 in 6 Std. Regen
Do, 27.01. 19:00 0.5 l/m2 in 12 Std. Regen
Do, 27.01. 13:00 0.0 l/m2 in 6 Std. -
Do, 27.01. 7:00 0.1 l/m2 in 12 Std. -
Ortszeit Niederschlagsmenge Niederschlagsart
Sa, 29.01. 3:00 0.0 l/m2 in 1 Std. -
Sa, 29.01. 2:50 keine Meldung -
Sa, 29.01. 2:40 keine Meldung -
Sa, 29.01. 2:30 0.0 l/m2 in 1 Std. -
Sa, 29.01. 2:20 keine Meldung -
Sa, 29.01. 2:10 keine Meldung -
Sa, 29.01. 2:00 0.0 l/m2 in 1 Std. -
Sa, 29.01. 1:30 0.0 l/m2 in 1 Std. -
Sa, 29.01. 1:00 0.0 l/m2 in 1 Std. -
Sa, 29.01. 0:30 0.0 l/m2 in 1 Std. -
Sa, 29.01. 0:00 0.0 l/m2 in 1 Std. -
Ortszeit Stärke Spitze Richtung
km/h Bft. km/h Grad Sektor
Sa, 29.01. 1:00 9 2 24 240° SW
Fr, 28.01. 19:00 14 3 47 270° W
Fr, 28.01. 13:00 25 4 43 300° NW
Fr, 28.01. 7:00 18 3 43 280° W
Fr, 28.01. 1:00 14 3 47 280° W
Do, 27.01. 19:00 6 1 22 220° SW
Do, 27.01. 13:00 11 2 36 230° SW
Do, 27.01. 7:00 11 2 17 300° NW
Ortszeit Stärke Spitze Richtung
km/h Bft. km/h Grad Sektor
Sa, 29.01. 3:00 9 2 11 330° NW
Sa, 29.01. 2:50 9 2 - 330° NW
Sa, 29.01. 2:40 7 2 - 300° NW
Sa, 29.01. 2:30 7 2 11 240° SW
Sa, 29.01. 2:20 7 2 - 240° SW
Sa, 29.01. 2:10 6 1 - 260° W
Sa, 29.01. 2:00 7 2 18 230° SW
Sa, 29.01. 1:30 7 2 18 220° SW
Sa, 29.01. 1:00 9 2 19 240° SW
Sa, 29.01. 0:30 9 2 17 220° SW
Sa, 29.01. 0:00 7 2 18 230° SW
Ortszeit Untergrenze Bedeckung Gattung
total tief tief mittel hoch
Sa, 29.01. 1:00 2400 m 8/8 8/8 - - -
Fr, 28.01. 19:00 1260 m 8/8 8/8 - - -
Fr, 28.01. 13:00 870 m 7/8 7/8 - - -
Fr, 28.01. 7:00 - 0/8 0/8 - - -
Fr, 28.01. 1:00 390 m 7/8 7/8 - - -
Do, 27.01. 19:00 480 m 8/8 8/8 - - -
Do, 27.01. 13:00 450 m 8/8 8/8 - - -
Do, 27.01. 7:00 300 m 8/8 8/8 - - -
Ortszeit Bedeckungsgrad in Achtel und Wolkenuntergrenze
Sa, 29.01. 3:00 8(3600m) 8(4500m)
Sa, 29.01. 2:50 8(3600m) 8(4500m)
Sa, 29.01. 2:40 8
Sa, 29.01. 2:30 7(3300m) 7(4500m) 8(5100m)
Sa, 29.01. 2:20 7(3300m) 7(4500m) 8(5100m)
Sa, 29.01. 2:10 8
Sa, 29.01. 2:00 8(2700m) 8(3300m) 8(4500m)
Sa, 29.01. 1:30 8(2400m) 8(3300m) 8(3900m)
Sa, 29.01. 1:00 8(2400m) 8(3900m) 8(5100m)
Sa, 29.01. 0:30 8(2400m) 8(5400m) 8(6000m)
Sa, 29.01. 0:00 3(930m) 8(3000m) 8(6000m)
Ortszeit Luftdruck NN (hPa) Tendenz (hPa in 3 Std.)
Sa, 29.01. 1:00 1036 - 1,6
Fr, 28.01. 19:00 1037 + 1,0
Fr, 28.01. 13:00 1036 + 0,1
Fr, 28.01. 7:00 1033 + 1,5
Fr, 28.01. 1:00 1031 + 2,1
Do, 27.01. 19:00 1028 + 0,2
Do, 27.01. 13:00 1030 - 1,2
Do, 27.01. 7:00 1031 - 0,6
Ortszeit Luftdruck NN (hPa) Tendenz (hPa in 3 Std.)
Sa, 29.01. 3:00 1035 - 1,4
Sa, 29.01. 2:50 1035 keine Meldung
Sa, 29.01. 2:40 1035 keine Meldung
Sa, 29.01. 2:30 1035 - 1,8
Sa, 29.01. 2:20 1035 keine Meldung
Sa, 29.01. 2:10 1035 keine Meldung
Sa, 29.01. 2:00 1035 - 2,0
Sa, 29.01. 1:30 1035 - 1,7
Sa, 29.01. 1:00 1036 - 1,6
Sa, 29.01. 0:30 1036 - 1,5
Sa, 29.01. 0:00 1036 - 1,1
Ortszeit Schneehöhe (cm)
Sa, 29.01. 1:00 0
Fr, 28.01. 19:00 0
Fr, 28.01. 13:00 0
Fr, 28.01. 7:00 0
Fr, 28.01. 1:00 0
Do, 27.01. 19:00 0
Do, 27.01. 13:00 0
Do, 27.01. 7:00 0
Ortszeit Schneehöhe (cm)
Sa, 29.01. 3:00 0
Sa, 29.01. 2:50 0
Sa, 29.01. 2:40 0
Sa, 29.01. 2:30 0
Sa, 29.01. 2:20 0
Sa, 29.01. 2:10 0
Sa, 29.01. 2:00 0
Sa, 29.01. 1:30 0
Sa, 29.01. 1:00 0
Sa, 29.01. 0:30 0
Sa, 29.01. 0:00 0
Link zu dieser Seite / Seite empfehlen

Das Wetter in ...